sensor_id;sensor_type;location;lat;lon;timestamp;temperature;humidity
18839;DHT22;9548;56.920;14.804;2022-11-28T00:01:27;4.60;99.90
18839;DHT22;9548;56.920;14.804;2022-11-28T00:03:54;4.70;99.90
18839;DHT22;9548;56.920;14.804;2022-11-28T00:06:21;4.70;99.90
18839;DHT22;9548;56.920;14.804;2022-11-28T00:08:49;4.70;99.90
18839;DHT22;9548;56.920;14.804;2022-11-28T00:11:16;4.60;99.90
18839;DHT22;9548;56.920;14.804;2022-11-28T00:13:44;4.70;99.90
18839;DHT22;9548;56.920;14.804;2022-11-28T00:16:14;4.70;99.90
18839;DHT22;9548;56.920;14.804;2022-11-28T00:18:43;4.70;99.90
18839;DHT22;9548;56.920;14.804;2022-11-28T00:21:11;4.70;99.90
18839;DHT22;9548;56.920;14.804;2022-11-28T00:23:38;4.70;99.90
18839;DHT22;9548;56.920;14.804;2022-11-28T00:26:08;4.70;99.90
18839;DHT22;9548;56.920;14.804;2022-11-28T00:28:35;4.70;99.90
18839;DHT22;9548;56.920;14.804;2022-11-28T00:31:03;4.80;99.90
18839;DHT22;9548;56.920;14.804;2022-11-28T00:33:31;4.80;99.90
18839;DHT22;9548;56.920;14.804;2022-11-28T00:36:01;4.80;99.90
18839;DHT22;9548;56.920;14.804;2022-11-28T00:38:28;4.80;99.90
18839;DHT22;9548;56.920;14.804;2022-11-28T00:40:59;4.80;99.90
18839;DHT22;9548;56.920;14.804;2022-11-28T00:43:27;4.70;99.90
18839;DHT22;9548;56.920;14.804;2022-11-28T00:45:54;4.80;99.90
18839;DHT22;9548;56.920;14.804;2022-11-28T00:48:21;4.80;99.90
18839;DHT22;9548;56.920;14.804;2022-11-28T00:50:48;4.80;99.90
18839;DHT22;9548;56.920;14.804;2022-11-28T00:53:16;4.80;99.90
18839;DHT22;9548;56.920;14.804;2022-11-28T00:55:43;4.80;99.90
18839;DHT22;9548;56.920;14.804;2022-11-28T00:58:10;4.90;99.90
18839;DHT22;9548;56.920;14.804;2022-11-28T01:00:37;4.80;99.90
18839;DHT22;9548;56.920;14.804;2022-11-28T01:03:04;4.90;99.90
18839;DHT22;9548;56.920;14.804;2022-11-28T01:05:31;4.80;99.90
18839;DHT22;9548;56.920;14.804;2022-11-28T01:07:58;4.80;99.90
18839;DHT22;9548;56.920;14.804;2022-11-28T01:10:26;4.80;99.90
18839;DHT22;9548;56.920;14.804;2022-11-28T01:12:53;4.80;99.90
18839;DHT22;9548;56.920;14.804;2022-11-28T01:15:20;4.90;99.90
18839;DHT22;9548;56.920;14.804;2022-11-28T01:17:47;4.90;99.90
18839;DHT22;9548;56.920;14.804;2022-11-28T01:20:14;4.90;99.90
18839;DHT22;9548;56.920;14.804;2022-11-28T01:22:41;4.90;99.90
18839;DHT22;9548;56.920;14.804;2022-11-28T01:25:08;4.90;99.90
18839;DHT22;9548;56.920;14.804;2022-11-28T01:27:36;4.90;99.90
18839;DHT22;9548;56.920;14.804;2022-11-28T01:30:04;4.90;99.90
18839;DHT22;9548;56.920;14.804;2022-11-28T01:32:31;4.90;99.90
18839;DHT22;9548;56.920;14.804;2022-11-28T01:34:58;4.90;99.90
18839;DHT22;9548;56.920;14.804;2022-11-28T01:37:27;4.90;99.90
18839;DHT22;9548;56.920;14.804;2022-11-28T01:39:55;4.90;99.90
18839;DHT22;9548;56.920;14.804;2022-11-28T01:42:22;4.90;99.90
18839;DHT22;9548;56.920;14.804;2022-11-28T01:45:19;4.90;99.90
18839;DHT22;9548;56.920;14.804;2022-11-28T01:47:47;4.90;99.90
18839;DHT22;9548;56.920;14.804;2022-11-28T01:50:16;4.90;99.90
18839;DHT22;9548;56.920;14.804;2022-11-28T01:52:45;4.90;99.90
18839;DHT22;9548;56.920;14.804;2022-11-28T01:55:15;4.90;99.90
18839;DHT22;9548;56.920;14.804;2022-11-28T01:57:43;4.90;99.90
18839;DHT22;9548;56.920;14.804;2022-11-28T02:00:14;4.90;99.90
18839;DHT22;9548;56.920;14.804;2022-11-28T02:02:45;4.90;99.90
18839;DHT22;9548;56.920;14.804;2022-11-28T02:05:14;4.90;99.90
18839;DHT22;9548;56.920;14.804;2022-11-28T02:07:42;4.90;99.90
18839;DHT22;9548;56.920;14.804;2022-11-28T02:10:11;4.90;99.90
18839;DHT22;9548;56.920;14.804;2022-11-28T02:12:54;4.90;99.90
18839;DHT22;9548;56.920;14.804;2022-11-28T02:15:46;4.90;99.90
18839;DHT22;9548;56.920;14.804;2022-11-28T02:18:31;4.90;99.90
18839;DHT22;9548;56.920;14.804;2022-11-28T02:21:11;4.90;99.90
18839;DHT22;9548;56.920;14.804;2022-11-28T02:24:11;4.90;99.90
18839;DHT22;9548;56.920;14.804;2022-11-28T02:26:55;4.90;99.90
18839;DHT22;9548;56.920;14.804;2022-11-28T02:29:45;4.90;99.90
18839;DHT22;9548;56.920;14.804;2022-11-28T02:32:28;4.90;99.90
18839;DHT22;9548;56.920;14.804;2022-11-28T02:35:07;4.90;99.90
18839;DHT22;9548;56.920;14.804;2022-11-28T02:37:42;4.90;99.90
18839;DHT22;9548;56.920;14.804;2022-11-28T02:40:17;4.90;99.90
18839;DHT22;9548;56.920;14.804;2022-11-28T02:42:53;4.90;99.90
18839;DHT22;9548;56.920;14.804;2022-11-28T02:45:26;4.90;99.90
18839;DHT22;9548;56.920;14.804;2022-11-28T02:48:01;4.90;99.90
18839;DHT22;9548;56.920;14.804;2022-11-28T02:50:32;4.90;99.90
18839;DHT22;9548;56.920;14.804;2022-11-28T02:53:04;5.00;99.90
18839;DHT22;9548;56.920;14.804;2022-11-28T02:55:31;5.00;99.90
18839;DHT22;9548;56.920;14.804;2022-11-28T02:57:59;4.90;99.90
18839;DHT22;9548;56.920;14.804;2022-11-28T03:00:30;4.90;99.90
18839;DHT22;9548;56.920;14.804;2022-11-28T03:03:27;4.90;99.90
18839;DHT22;9548;56.920;14.804;2022-11-28T03:06:06;4.90;99.90
18839;DHT22;9548;56.920;14.804;2022-11-28T03:08:43;4.90;99.90
18839;DHT22;9548;56.920;14.804;2022-11-28T03:11:16;4.90;99.90
18839;DHT22;9548;56.920;14.804;2022-11-28T03:13:52;4.90;99.90
18839;DHT22;9548;56.920;14.804;2022-11-28T03:16:27;4.90;99.90
18839;DHT22;9548;56.920;14.804;2022-11-28T03:19:01;4.90;99.90
18839;DHT22;9548;56.920;14.804;2022-11-28T03:21:36;4.90;99.90
18839;DHT22;9548;56.920;14.804;2022-11-28T03:24:10;4.90;99.90
18839;DHT22;9548;56.920;14.804;2022-11-28T03:26:45;4.90;99.90
18839;DHT22;9548;56.920;14.804;2022-11-28T03:29:15;4.90;99.90
18839;DHT22;9548;56.920;14.804;2022-11-28T03:31:46;4.90;99.90
18839;DHT22;9548;56.920;14.804;2022-11-28T03:34:19;4.90;99.90
18839;DHT22;9548;56.920;14.804;2022-11-28T03:36:51;4.90;99.90
18839;DHT22;9548;56.920;14.804;2022-11-28T03:39:22;4.90;99.90
18839;DHT22;9548;56.920;14.804;2022-11-28T03:41:52;4.80;99.90
18839;DHT22;9548;56.920;14.804;2022-11-28T03:44:26;4.90;99.90
18839;DHT22;9548;56.920;14.804;2022-11-28T03:46:55;4.80;99.90
18839;DHT22;9548;56.920;14.804;2022-11-28T03:49:27;4.80;99.90
18839;DHT22;9548;56.920;14.804;2022-11-28T03:51:59;4.80;99.90
18839;DHT22;9548;56.920;14.804;2022-11-28T03:54:32;4.80;99.90
18839;DHT22;9548;56.920;14.804;2022-11-28T03:57:07;4.80;99.90
18839;DHT22;9548;56.920;14.804;2022-11-28T03:59:37;4.80;99.90
18839;DHT22;9548;56.920;14.804;2022-11-28T04:02:13;4.90;99.90
18839;DHT22;9548;56.920;14.804;2022-11-28T04:04:51;4.80;99.90
18839;DHT22;9548;56.920;14.804;2022-11-28T04:07:24;4.80;99.90
18839;DHT22;9548;56.920;14.804;2022-11-28T04:09:58;4.80;99.90
18839;DHT22;9548;56.920;14.804;2022-11-28T04:12:33;4.80;99.90
18839;DHT22;9548;56.920;14.804;2022-11-28T04:15:08;4.90;99.90
18839;DHT22;9548;56.920;14.804;2022-11-28T04:17:41;4.90;99.90
18839;DHT22;9548;56.920;14.804;2022-11-28T04:20:15;4.90;99.90
18839;DHT22;9548;56.920;14.804;2022-11-28T04:22:49;4.90;99.90
18839;DHT22;9548;56.920;14.804;2022-11-28T04:25:19;4.90;99.90
18839;DHT22;9548;56.920;14.804;2022-11-28T04:27:52;4.90;99.90
18839;DHT22;9548;56.920;14.804;2022-11-28T04:30:21;4.90;99.90
18839;DHT22;9548;56.920;14.804;2022-11-28T04:32:50;4.90;99.90
18839;DHT22;9548;56.920;14.804;2022-11-28T04:35:23;4.90;99.90
18839;DHT22;9548;56.920;14.804;2022-11-28T04:37:53;4.90;99.90
18839;DHT22;9548;56.920;14.804;2022-11-28T04:40:22;4.90;99.90
18839;DHT22;9548;56.920;14.804;2022-11-28T04:42:54;4.90;99.90
18839;DHT22;9548;56.920;14.804;2022-11-28T04:45:25;4.90;99.90
18839;DHT22;9548;56.920;14.804;2022-11-28T04:47:53;4.90;99.90
18839;DHT22;9548;56.920;14.804;2022-11-28T04:50:26;4.90;99.90
18839;DHT22;9548;56.920;14.804;2022-11-28T04:52:57;4.90;99.90
18839;DHT22;9548;56.920;14.804;2022-11-28T04:55:30;5.00;99.90
18839;DHT22;9548;56.920;14.804;2022-11-28T04:58:05;5.00;99.90
18839;DHT22;9548;56.920;14.804;2022-11-28T05:00:35;5.00;99.90
18839;DHT22;9548;56.920;14.804;2022-11-28T05:03:03;5.00;99.90
18839;DHT22;9548;56.920;14.804;2022-11-28T05:05:42;5.00;99.90
18839;DHT22;9548;56.920;14.804;2022-11-28T05:08:09;5.00;99.90
18839;DHT22;9548;56.920;14.804;2022-11-28T05:10:36;5.00;99.90
18839;DHT22;9548;56.920;14.804;2022-11-28T05:13:03;5.00;99.90
18839;DHT22;9548;56.920;14.804;2022-11-28T05:15:30;5.00;99.90
18839;DHT22;9548;56.920;14.804;2022-11-28T05:17:58;5.00;99.90
18839;DHT22;9548;56.920;14.804;2022-11-28T05:20:25;5.00;99.90
18839;DHT22;9548;56.920;14.804;2022-11-28T05:22:53;5.00;99.90
18839;DHT22;9548;56.920;14.804;2022-11-28T05:25:20;5.00;99.90
18839;DHT22;9548;56.920;14.804;2022-11-28T05:27:47;5.00;99.90
18839;DHT22;9548;56.920;14.804;2022-11-28T05:30:15;4.90;99.90
18839;DHT22;9548;56.920;14.804;2022-11-28T05:32:42;4.90;99.90
18839;DHT22;9548;56.920;14.804;2022-11-28T05:35:09;4.90;99.90
18839;DHT22;9548;56.920;14.804;2022-11-28T05:37:36;4.90;99.90
18839;DHT22;9548;56.920;14.804;2022-11-28T05:40:05;4.90;99.90
18839;DHT22;9548;56.920;14.804;2022-11-28T05:42:33;4.90;99.90
18839;DHT22;9548;56.920;14.804;2022-11-28T05:45:01;4.80;99.90
18839;DHT22;9548;56.920;14.804;2022-11-28T05:47:29;4.90;99.90
18839;DHT22;9548;56.920;14.804;2022-11-28T05:49:56;4.90;99.90
18839;DHT22;9548;56.920;14.804;2022-11-28T05:52:23;4.90;99.90
18839;DHT22;9548;56.920;14.804;2022-11-28T05:54:50;4.90;99.90
18839;DHT22;9548;56.920;14.804;2022-11-28T05:57:18;4.90;99.90
18839;DHT22;9548;56.920;14.804;2022-11-28T05:59:45;4.90;99.90
18839;DHT22;9548;56.920;14.804;2022-11-28T06:02:12;4.90;99.90
18839;DHT22;9548;56.920;14.804;2022-11-28T06:04:39;4.80;99.90
18839;DHT22;9548;56.920;14.804;2022-11-28T06:07:06;4.80;99.90
18839;DHT22;9548;56.920;14.804;2022-11-28T06:09:33;4.80;99.90
18839;DHT22;9548;56.920;14.804;2022-11-28T06:12:00;4.80;99.90
18839;DHT22;9548;56.920;14.804;2022-11-28T06:14:28;4.70;99.90
18839;DHT22;9548;56.920;14.804;2022-11-28T06:16:55;4.70;99.90
18839;DHT22;9548;56.920;14.804;2022-11-28T06:19:22;4.70;99.90
18839;DHT22;9548;56.920;14.804;2022-11-28T06:21:49;4.70;99.90
18839;DHT22;9548;56.920;14.804;2022-11-28T06:24:21;4.60;99.90
18839;DHT22;9548;56.920;14.804;2022-11-28T06:26:48;4.60;99.90
18839;DHT22;9548;56.920;14.804;2022-11-28T06:29:15;4.50;99.90
18839;DHT22;9548;56.920;14.804;2022-11-28T06:31:43;4.50;99.90
18839;DHT22;9548;56.920;14.804;2022-11-28T06:34:10;4.40;99.90
18839;DHT22;9548;56.920;14.804;2022-11-28T06:36:38;4.40;99.90
18839;DHT22;9548;56.920;14.804;2022-11-28T06:39:06;4.40;99.90
18839;DHT22;9548;56.920;14.804;2022-11-28T06:41:33;4.40;99.90
18839;DHT22;9548;56.920;14.804;2022-11-28T06:44:00;4.50;99.90
18839;DHT22;9548;56.920;14.804;2022-11-28T06:46:27;4.50;99.90
18839;DHT22;9548;56.920;14.804;2022-11-28T06:48:56;4.50;99.90
18839;DHT22;9548;56.920;14.804;2022-11-28T06:51:23;4.50;99.90
18839;DHT22;9548;56.920;14.804;2022-11-28T06:53:50;4.50;99.90
18839;DHT22;9548;56.920;14.804;2022-11-28T06:56:18;4.60;99.90
18839;DHT22;9548;56.920;14.804;2022-11-28T06:58:46;4.50;99.90
18839;DHT22;9548;56.920;14.804;2022-11-28T07:01:14;4.60;99.90
18839;DHT22;9548;56.920;14.804;2022-11-28T07:03:42;4.50;99.90
18839;DHT22;9548;56.920;14.804;2022-11-28T07:06:11;4.60;99.90
18839;DHT22;9548;56.920;14.804;2022-11-28T07:08:39;4.60;99.90
18839;DHT22;9548;56.920;14.804;2022-11-28T07:11:08;4.60;99.90
18839;DHT22;9548;56.920;14.804;2022-11-28T07:13:35;4.60;99.90
18839;DHT22;9548;56.920;14.804;2022-11-28T07:16:03;4.60;99.90
18839;DHT22;9548;56.920;14.804;2022-11-28T07:18:30;4.60;99.90
18839;DHT22;9548;56.920;14.804;2022-11-28T07:20:58;4.60;99.90
18839;DHT22;9548;56.920;14.804;2022-11-28T07:23:26;4.60;99.90
18839;DHT22;9548;56.920;14.804;2022-11-28T07:25:57;4.50;99.90
18839;DHT22;9548;56.920;14.804;2022-11-28T07:28:24;4.60;99.90
18839;DHT22;9548;56.920;14.804;2022-11-28T07:30:58;4.60;99.90
18839;DHT22;9548;56.920;14.804;2022-11-28T07:33:25;4.60;99.90
18839;DHT22;9548;56.920;14.804;2022-11-28T07:35:51;4.60;99.90
18839;DHT22;9548;56.920;14.804;2022-11-28T07:38:18;4.60;99.90
18839;DHT22;9548;56.920;14.804;2022-11-28T07:40:47;4.60;99.90
18839;DHT22;9548;56.920;14.804;2022-11-28T07:43:14;4.60;99.90
18839;DHT22;9548;56.920;14.804;2022-11-28T07:45:42;4.60;99.90
18839;DHT22;9548;56.920;14.804;2022-11-28T07:48:09;4.70;99.90
18839;DHT22;9548;56.920;14.804;2022-11-28T07:50:37;4.70;99.90
18839;DHT22;9548;56.920;14.804;2022-11-28T07:53:04;4.70;99.90
18839;DHT22;9548;56.920;14.804;2022-11-28T07:55:34;4.80;99.90
18839;DHT22;9548;56.920;14.804;2022-11-28T07:58:02;4.80;99.90
18839;DHT22;9548;56.920;14.804;2022-11-28T08:00:30;4.80;99.90
18839;DHT22;9548;56.920;14.804;2022-11-28T08:02:58;4.90;99.90
18839;DHT22;9548;56.920;14.804;2022-11-28T08:05:25;4.90;99.90
18839;DHT22;9548;56.920;14.804;2022-11-28T08:07:52;4.90;99.90
18839;DHT22;9548;56.920;14.804;2022-11-28T08:10:19;4.80;99.90
18839;DHT22;9548;56.920;14.804;2022-11-28T08:12:46;4.80;99.90
18839;DHT22;9548;56.920;14.804;2022-11-28T08:15:14;4.80;99.90
18839;DHT22;9548;56.920;14.804;2022-11-28T08:17:41;4.80;99.90
18839;DHT22;9548;56.920;14.804;2022-11-28T08:20:09;4.80;99.90
18839;DHT22;9548;56.920;14.804;2022-11-28T08:22:36;4.80;99.90
18839;DHT22;9548;56.920;14.804;2022-11-28T08:25:03;4.80;99.90
18839;DHT22;9548;56.920;14.804;2022-11-28T08:27:30;4.90;99.90
18839;DHT22;9548;56.920;14.804;2022-11-28T08:29:57;4.90;99.90
18839;DHT22;9548;56.920;14.804;2022-11-28T08:32:27;4.80;99.90
18839;DHT22;9548;56.920;14.804;2022-11-28T08:34:54;4.80;99.90
18839;DHT22;9548;56.920;14.804;2022-11-28T08:37:21;4.80;99.90
18839;DHT22;9548;56.920;14.804;2022-11-28T08:39:48;4.70;99.90
18839;DHT22;9548;56.920;14.804;2022-11-28T08:42:15;4.70;99.90
18839;DHT22;9548;56.920;14.804;2022-11-28T08:44:42;4.80;99.90
18839;DHT22;9548;56.920;14.804;2022-11-28T08:47:09;4.80;99.90
18839;DHT22;9548;56.920;14.804;2022-11-28T08:49:37;4.70;99.90
18839;DHT22;9548;56.920;14.804;2022-11-28T08:52:05;4.70;99.90
18839;DHT22;9548;56.920;14.804;2022-11-28T08:54:32;4.80;99.90
18839;DHT22;9548;56.920;14.804;2022-11-28T08:56:59;4.80;99.90
18839;DHT22;9548;56.920;14.804;2022-11-28T08:59:26;4.80;99.90
18839;DHT22;9548;56.920;14.804;2022-11-28T09:01:53;4.90;99.90
18839;DHT22;9548;56.920;14.804;2022-11-28T09:04:21;4.90;99.90
18839;DHT22;9548;56.920;14.804;2022-11-28T09:06:50;4.90;99.90
18839;DHT22;9548;56.920;14.804;2022-11-28T09:09:17;5.00;99.90
18839;DHT22;9548;56.920;14.804;2022-11-28T09:11:44;5.10;99.90
18839;DHT22;9548;56.920;14.804;2022-11-28T09:14:12;5.20;99.90
18839;DHT22;9548;56.920;14.804;2022-11-28T09:16:39;5.20;99.90
18839;DHT22;9548;56.920;14.804;2022-11-28T09:19:07;5.30;99.90
18839;DHT22;9548;56.920;14.804;2022-11-28T09:21:35;5.40;99.90
18839;DHT22;9548;56.920;14.804;2022-11-28T09:24:04;5.40;99.90
18839;DHT22;9548;56.920;14.804;2022-11-28T09:26:31;5.50;99.90
18839;DHT22;9548;56.920;14.804;2022-11-28T09:28:58;5.50;99.90
18839;DHT22;9548;56.920;14.804;2022-11-28T09:31:26;5.50;99.90
18839;DHT22;9548;56.920;14.804;2022-11-28T09:33:53;5.60;99.90
18839;DHT22;9548;56.920;14.804;2022-11-28T09:36:21;5.60;99.90
18839;DHT22;9548;56.920;14.804;2022-11-28T09:38:49;5.50;99.90
18839;DHT22;9548;56.920;14.804;2022-11-28T09:41:38;5.50;99.90
18839;DHT22;9548;56.920;14.804;2022-11-28T09:44:13;5.50;99.90
18839;DHT22;9548;56.920;14.804;2022-11-28T09:46:41;5.50;99.90
18839;DHT22;9548;56.920;14.804;2022-11-28T09:49:20;5.50;99.90
18839;DHT22;9548;56.920;14.804;2022-11-28T09:51:51;5.60;99.90
18839;DHT22;9548;56.920;14.804;2022-11-28T09:54:22;5.60;99.90
18839;DHT22;9548;56.920;14.804;2022-11-28T09:56:52;5.70;99.90
18839;DHT22;9548;56.920;14.804;2022-11-28T09:59:23;5.70;99.90
18839;DHT22;9548;56.920;14.804;2022-11-28T10:01:59;5.70;99.90
18839;DHT22;9548;56.920;14.804;2022-11-28T10:04:37;5.80;99.90
18839;DHT22;9548;56.920;14.804;2022-11-28T10:07:12;5.80;99.90
18839;DHT22;9548;56.920;14.804;2022-11-28T10:09:50;5.80;99.90
18839;DHT22;9548;56.920;14.804;2022-11-28T10:12:31;5.80;99.90
18839;DHT22;9548;56.920;14.804;2022-11-28T10:15:22;5.90;99.90
18839;DHT22;9548;56.920;14.804;2022-11-28T10:18:01;5.90;99.90
18839;DHT22;9548;56.920;14.804;2022-11-28T10:20:36;6.00;99.90
18839;DHT22;9548;56.920;14.804;2022-11-28T10:23:06;6.00;99.90
18839;DHT22;9548;56.920;14.804;2022-11-28T10:25:39;6.00;99.90
18839;DHT22;9548;56.920;14.804;2022-11-28T10:28:14;6.00;99.90
18839;DHT22;9548;56.920;14.804;2022-11-28T10:30:46;6.10;99.90
18839;DHT22;9548;56.920;14.804;2022-11-28T10:33:20;6.10;99.90
18839;DHT22;9548;56.920;14.804;2022-11-28T10:35:53;6.20;99.90
18839;DHT22;9548;56.920;14.804;2022-11-28T10:38:23;6.20;99.90
18839;DHT22;9548;56.920;14.804;2022-11-28T10:40:56;6.30;99.90
18839;DHT22;9548;56.920;14.804;2022-11-28T10:43:34;6.30;99.90
18839;DHT22;9548;56.920;14.804;2022-11-28T10:46:19;6.20;99.90
18839;DHT22;9548;56.920;14.804;2022-11-28T10:48:54;6.20;99.90
18839;DHT22;9548;56.920;14.804;2022-11-28T10:51:32;6.20;99.90
18839;DHT22;9548;56.920;14.804;2022-11-28T10:54:14;6.20;99.90
18839;DHT22;9548;56.920;14.804;2022-11-28T10:56:49;6.30;99.90
18839;DHT22;9548;56.920;14.804;2022-11-28T10:59:28;6.30;99.90
18839;DHT22;9548;56.920;14.804;2022-11-28T11:01:57;6.30;99.90
18839;DHT22;9548;56.920;14.804;2022-11-28T11:04:26;6.40;99.90
18839;DHT22;9548;56.920;14.804;2022-11-28T11:07:04;6.50;99.90
18839;DHT22;9548;56.920;14.804;2022-11-28T11:09:35;6.60;99.90
18839;DHT22;9548;56.920;14.804;2022-11-28T11:12:05;6.60;99.90
18839;DHT22;9548;56.920;14.804;2022-11-28T11:14:38;6.60;99.90
18839;DHT22;9548;56.920;14.804;2022-11-28T11:17:06;6.70;99.90
18839;DHT22;9548;56.920;14.804;2022-11-28T11:19:35;6.70;99.90
18839;DHT22;9548;56.920;14.804;2022-11-28T11:22:05;6.70;99.90
18839;DHT22;9548;56.920;14.804;2022-11-28T11:24:32;6.90;99.90
18839;DHT22;9548;56.920;14.804;2022-11-28T11:27:05;6.80;99.90
18839;DHT22;9548;56.920;14.804;2022-11-28T11:29:34;6.80;99.90
18839;DHT22;9548;56.920;14.804;2022-11-28T11:32:05;6.70;99.90
18839;DHT22;9548;56.920;14.804;2022-11-28T11:34:36;6.60;99.90
18839;DHT22;9548;56.920;14.804;2022-11-28T11:37:29;6.60;99.90
18839;DHT22;9548;56.920;14.804;2022-11-28T11:39:56;6.60;99.90
18839;DHT22;9548;56.920;14.804;2022-11-28T11:42:25;6.70;99.90
18839;DHT22;9548;56.920;14.804;2022-11-28T11:44:53;6.70;99.90
18839;DHT22;9548;56.920;14.804;2022-11-28T11:47:39;6.70;99.90
18839;DHT22;9548;56.920;14.804;2022-11-28T11:50:16;6.70;99.90
18839;DHT22;9548;56.920;14.804;2022-11-28T11:52:59;6.70;99.90
18839;DHT22;9548;56.920;14.804;2022-11-28T11:55:29;6.80;99.90
18839;DHT22;9548;56.920;14.804;2022-11-28T11:57:58;6.80;99.90
18839;DHT22;9548;56.920;14.804;2022-11-28T12:00:30;6.80;99.90
18839;DHT22;9548;56.920;14.804;2022-11-28T12:03:05;6.80;99.90
18839;DHT22;9548;56.920;14.804;2022-11-28T12:05:46;6.70;99.90
18839;DHT22;9548;56.920;14.804;2022-11-28T12:08:16;6.80;99.90
18839;DHT22;9548;56.920;14.804;2022-11-28T12:10:48;6.70;99.90
18839;DHT22;9548;56.920;14.804;2022-11-28T12:13:19;6.70;99.90
18839;DHT22;9548;56.920;14.804;2022-11-28T12:15:55;6.80;99.90
18839;DHT22;9548;56.920;14.804;2022-11-28T12:18:31;6.70;99.90
18839;DHT22;9548;56.920;14.804;2022-11-28T12:21:09;6.70;99.90
18839;DHT22;9548;56.920;14.804;2022-11-28T12:23:59;6.70;99.90
18839;DHT22;9548;56.920;14.804;2022-11-28T12:26:35;6.60;99.90
18839;DHT22;9548;56.920;14.804;2022-11-28T12:29:29;6.60;99.90
18839;DHT22;9548;56.920;14.804;2022-11-28T12:32:07;6.50;99.90
18839;DHT22;9548;56.920;14.804;2022-11-28T12:34:49;6.50;99.90
18839;DHT22;9548;56.920;14.804;2022-11-28T12:37:28;6.50;99.90
18839;DHT22;9548;56.920;14.804;2022-11-28T12:40:02;6.50;99.90
18839;DHT22;9548;56.920;14.804;2022-11-28T12:42:45;6.40;99.90
18839;DHT22;9548;56.920;14.804;2022-11-28T12:45:28;6.30;99.90
18839;DHT22;9548;56.920;14.804;2022-11-28T12:48:04;6.30;99.90
18839;DHT22;9548;56.920;14.804;2022-11-28T12:50:37;6.30;99.90
18839;DHT22;9548;56.920;14.804;2022-11-28T12:53:29;6.20;99.90
18839;DHT22;9548;56.920;14.804;2022-11-28T12:56:02;6.20;99.90
18839;DHT22;9548;56.920;14.804;2022-11-28T12:58:36;6.10;99.90
18839;DHT22;9548;56.920;14.804;2022-11-28T13:01:17;6.10;99.90
18839;DHT22;9548;56.920;14.804;2022-11-28T13:03:58;6.00;99.90
18839;DHT22;9548;56.920;14.804;2022-11-28T13:06:35;6.00;99.90
18839;DHT22;9548;56.920;14.804;2022-11-28T13:09:20;6.00;99.90
18839;DHT22;9548;56.920;14.804;2022-11-28T13:12:06;6.00;99.90
18839;DHT22;9548;56.920;14.804;2022-11-28T13:14:46;5.90;99.90
18839;DHT22;9548;56.920;14.804;2022-11-28T13:17:32;5.90;99.90
18839;DHT22;9548;56.920;14.804;2022-11-28T13:20:12;5.90;99.90
18839;DHT22;9548;56.920;14.804;2022-11-28T13:23:03;5.90;99.90
18839;DHT22;9548;56.920;14.804;2022-11-28T13:25:38;5.90;99.90
18839;DHT22;9548;56.920;14.804;2022-11-28T13:28:15;5.90;99.90
18839;DHT22;9548;56.920;14.804;2022-11-28T13:30:48;5.90;99.90
18839;DHT22;9548;56.920;14.804;2022-11-28T13:33:30;5.80;99.90
18839;DHT22;9548;56.920;14.804;2022-11-28T13:36:01;5.80;99.90
18839;DHT22;9548;56.920;14.804;2022-11-28T13:38:41;5.80;99.90
18839;DHT22;9548;56.920;14.804;2022-11-28T13:41:14;5.80;99.90
18839;DHT22;9548;56.920;14.804;2022-11-28T13:43:49;5.80;99.90
18839;DHT22;9548;56.920;14.804;2022-11-28T13:46:18;5.80;99.90
18839;DHT22;9548;56.920;14.804;2022-11-28T13:49:07;5.70;99.90
18839;DHT22;9548;56.920;14.804;2022-11-28T13:51:36;5.70;99.90
18839;DHT22;9548;56.920;14.804;2022-11-28T13:54:41;5.70;99.90
18839;DHT22;9548;56.920;14.804;2022-11-28T13:57:26;5.60;99.90
18839;DHT22;9548;56.920;14.804;2022-11-28T14:00:00;5.60;99.90
18839;DHT22;9548;56.920;14.804;2022-11-28T14:02:38;5.60;99.90
18839;DHT22;9548;56.920;14.804;2022-11-28T14:05:27;5.60;99.90
18839;DHT22;9548;56.920;14.804;2022-11-28T14:07:57;5.60;99.90
18839;DHT22;9548;56.920;14.804;2022-11-28T14:10:51;5.50;99.90
18839;DHT22;9548;56.920;14.804;2022-11-28T14:13:41;5.50;99.90
18839;DHT22;9548;56.920;14.804;2022-11-28T14:16:21;5.50;99.90
18839;DHT22;9548;56.920;14.804;2022-11-28T14:19:03;5.50;99.90
18839;DHT22;9548;56.920;14.804;2022-11-28T14:21:45;5.40;99.90
18839;DHT22;9548;56.920;14.804;2022-11-28T14:24:22;5.40;99.90
18839;DHT22;9548;56.920;14.804;2022-11-28T14:26:58;5.30;99.90
18839;DHT22;9548;56.920;14.804;2022-11-28T14:29:32;5.30;99.90
18839;DHT22;9548;56.920;14.804;2022-11-28T14:32:00;5.30;99.90
18839;DHT22;9548;56.920;14.804;2022-11-28T14:34:38;5.30;99.90
18839;DHT22;9548;56.920;14.804;2022-11-28T14:43:36;5.10;99.90
18839;DHT22;9548;56.920;14.804;2022-11-28T14:46:26;5.20;99.90
18839;DHT22;9548;56.920;14.804;2022-11-28T14:49:15;5.10;99.90
18839;DHT22;9548;56.920;14.804;2022-11-28T14:54:55;5.10;99.90
18839;DHT22;9548;56.920;14.804;2022-11-28T14:57:25;5.10;99.90
18839;DHT22;9548;56.920;14.804;2022-11-28T14:59:56;5.00;99.90
18839;DHT22;9548;56.920;14.804;2022-11-28T15:05:36;5.00;99.90
18839;DHT22;9548;56.920;14.804;2022-11-28T15:08:24;4.90;99.90
18839;DHT22;9548;56.920;14.804;2022-11-28T15:11:02;4.90;99.90
18839;DHT22;9548;56.920;14.804;2022-11-28T15:13:42;4.70;99.90
18839;DHT22;9548;56.920;14.804;2022-11-28T15:16:14;4.70;99.90
18839;DHT22;9548;56.920;14.804;2022-11-28T15:18:46;4.60;99.90
18839;DHT22;9548;56.920;14.804;2022-11-28T15:21:17;4.60;99.90
18839;DHT22;9548;56.920;14.804;2022-11-28T15:23:47;4.60;99.90
18839;DHT22;9548;56.920;14.804;2022-11-28T15:26:19;4.50;99.90
18839;DHT22;9548;56.920;14.804;2022-11-28T15:28:46;4.50;99.90
18839;DHT22;9548;56.920;14.804;2022-11-28T15:31:21;4.40;99.90
18839;DHT22;9548;56.920;14.804;2022-11-28T15:33:48;4.40;99.90
18839;DHT22;9548;56.920;14.804;2022-11-28T15:36:23;4.30;99.90
18839;DHT22;9548;56.920;14.804;2022-11-28T15:38:52;4.30;99.90
18839;DHT22;9548;56.920;14.804;2022-11-28T15:41:20;4.30;99.90
18839;DHT22;9548;56.920;14.804;2022-11-28T15:43:48;4.40;99.90
18839;DHT22;9548;56.920;14.804;2022-11-28T15:46:19;4.40;99.90
18839;DHT22;9548;56.920;14.804;2022-11-28T15:48:47;4.40;99.90
18839;DHT22;9548;56.920;14.804;2022-11-28T15:51:25;4.50;99.90
18839;DHT22;9548;56.920;14.804;2022-11-28T15:53:53;4.50;99.90
18839;DHT22;9548;56.920;14.804;2022-11-28T15:56:21;4.50;99.90
18839;DHT22;9548;56.920;14.804;2022-11-28T15:58:48;4.50;99.90
18839;DHT22;9548;56.920;14.804;2022-11-28T16:01:19;4.50;99.90
18839;DHT22;9548;56.920;14.804;2022-11-28T16:03:52;4.50;99.90
18839;DHT22;9548;56.920;14.804;2022-11-28T16:06:20;4.40;99.90
18839;DHT22;9548;56.920;14.804;2022-11-28T16:08:51;4.40;99.90
18839;DHT22;9548;56.920;14.804;2022-11-28T16:11:20;4.30;99.90
18839;DHT22;9548;56.920;14.804;2022-11-28T16:13:48;4.20;99.90
18839;DHT22;9548;56.920;14.804;2022-11-28T16:16:20;4.20;99.90
18839;DHT22;9548;56.920;14.804;2022-11-28T16:18:53;4.20;99.90
18839;DHT22;9548;56.920;14.804;2022-11-28T16:21:24;4.20;99.90
18839;DHT22;9548;56.920;14.804;2022-11-28T16:23:51;4.20;99.90
18839;DHT22;9548;56.920;14.804;2022-11-28T16:26:22;4.20;99.90
18839;DHT22;9548;56.920;14.804;2022-11-28T16:28:59;4.20;99.90